createdAt,value
2019-04-10T00:00:35.457Z,95977.74
2019-04-10T00:03:06.205Z,95979.85
2019-04-10T00:05:36.361Z,95979.86
2019-04-10T00:08:06.410Z,95984.50
2019-04-10T00:10:36.507Z,95979.42
2019-04-10T00:13:06.796Z,95986.61
2019-04-10T00:15:36.779Z,95973.10
2019-04-10T00:18:07.424Z,95979.03
2019-04-10T00:20:37.566Z,95981.11
2019-04-10T00:23:08.652Z,95984.08
2019-04-10T00:25:39.275Z,95977.32
2019-04-10T00:28:09.568Z,95985.77
2019-04-10T00:30:39.688Z,95980.70
2019-04-10T00:33:10.252Z,95982.38
2019-04-10T00:35:40.436Z,95982.38
2019-04-10T00:38:10.474Z,95983.64
2019-04-10T00:40:41.407Z,95986.61
2019-04-10T00:43:12.708Z,95985.75
2019-04-10T00:45:43.889Z,95991.25
2019-04-10T00:48:14.083Z,95984.08
2019-04-10T00:50:44.624Z,95984.93
2019-04-10T00:53:14.835Z,95991.69
2019-04-10T00:55:46.043Z,95989.56
2019-04-10T00:58:16.285Z,95991.26
2019-04-10T01:00:47.489Z,95989.18
2019-04-10T01:03:35.794Z,95990.88
2019-04-10T01:06:06.073Z,95987.51
2019-04-10T01:08:37.052Z,95995.09
2019-04-10T01:11:07.178Z,95988.34
2019-04-10T01:13:37.197Z,95993.41
2019-04-10T01:16:07.323Z,95990.91
2019-04-10T01:18:37.488Z,95999.75
2019-04-10T01:21:08.323Z,95998.50
2019-04-10T01:23:39.312Z,95996.82
2019-04-10T01:26:10.433Z,96003.58
2019-04-10T01:28:40.897Z,95998.09
2019-04-10T01:31:11.035Z,95995.12
2019-04-10T01:33:41.104Z,95992.17
2019-04-10T01:36:11.222Z,95994.30
2019-04-10T01:38:41.865Z,95993.44
2019-04-10T01:41:12.032Z,96002.74
2019-04-10T01:43:42.040Z,95996.84
2019-04-10T01:46:12.103Z,95993.44
2019-04-10T01:48:42.199Z,95996.83
2019-04-10T01:51:12.292Z,95997.25
2019-04-10T01:53:42.363Z,95988.41
2019-04-10T01:56:22.983Z,95992.20
2019-04-10T01:58:46.132Z,95984.18
2019-04-10T02:01:22.304Z,95985.86
2019-04-10T02:03:52.333Z,95982.08
2019-04-10T02:06:22.418Z,95989.64
2019-04-10T02:08:52.483Z,95988.77
2019-04-10T02:11:22.573Z,95988.38
2019-04-10T02:13:52.667Z,95987.11
2019-04-10T02:16:22.897Z,95984.13
2019-04-10T02:18:54.449Z,95994.25
2019-04-10T02:21:25.413Z,95983.71
2019-04-10T02:23:55.538Z,95995.91
2019-04-10T02:26:25.637Z,95991.68
2019-04-10T02:28:55.721Z,95990.01
2019-04-10T02:31:27.944Z,95981.58
2019-04-10T02:33:59.545Z,95985.78
2019-04-10T02:36:31.509Z,95981.97
2019-04-10T02:39:15.115Z,95977.32
2019-04-10T02:41:34.615Z,95980.67
2019-04-10T02:44:05.140Z,95982.34
2019-04-10T02:46:36.767Z,95974.77
2019-04-10T02:49:08.217Z,95981.52
2019-04-10T02:51:39.049Z,95977.30
2019-04-10T02:54:09.551Z,95974.77
2019-04-10T02:56:41.144Z,95977.26
2019-04-10T02:59:11.352Z,95983.98
2019-04-10T03:01:41.727Z,95980.61
2019-04-10T03:04:13.316Z,95984.80
2019-04-10T03:06:45.092Z,95982.27
2019-04-10T03:09:35.228Z,95979.72
2019-04-10T03:11:47.492Z,95982.23
2019-04-10T03:14:18.978Z,95985.17
2019-04-10T03:16:49.531Z,95985.14
2019-04-10T03:19:19.693Z,95985.13
2019-04-10T03:21:49.791Z,95981.34
2019-04-10T03:24:19.945Z,95988.05
2019-04-10T03:26:50.023Z,95982.97
2019-04-10T03:29:20.049Z,95982.97
2019-04-10T03:31:52.287Z,95988.87
2019-04-10T03:34:33.233Z,95985.48
2019-04-10T03:37:01.647Z,95986.75
2019-04-10T03:39:35.549Z,95977.01
2019-04-10T03:42:04.655Z,95988.01
2019-04-10T03:44:34.761Z,95984.63
2019-04-10T03:47:05.000Z,95984.63
2019-04-10T03:49:36.116Z,95988.81
2019-04-10T03:52:07.245Z,95992.56
2019-04-10T03:54:37.884Z,95990.44
2019-04-10T03:57:10.042Z,95993.41
2019-04-10T03:59:41.436Z,95990.48
2019-04-10T04:02:11.962Z,96000.54
2019-04-10T04:04:42.073Z,95994.67
2019-04-10T04:07:13.185Z,95996.30
2019-04-10T04:09:44.006Z,95986.20
2019-04-10T04:12:14.742Z,95992.55
2019-04-10T04:14:44.809Z,95992.10
2019-04-10T04:17:15.784Z,95995.48
2019-04-10T04:19:46.322Z,95987.51
2019-04-10T04:22:16.749Z,95984.53
2019-04-10T04:24:46.829Z,95995.47
2019-04-10T04:27:17.354Z,95998.39
2019-04-10T04:29:49.790Z,95996.28
2019-04-10T04:32:20.045Z,95998.01
2019-04-10T04:34:50.121Z,95998.87
2019-04-10T04:37:20.842Z,95999.72
2019-04-10T04:39:52.096Z,96004.78
2019-04-10T04:42:22.396Z,96003.11
2019-04-10T04:44:52.473Z,96006.48
2019-04-10T04:47:22.547Z,96010.67
2019-04-10T04:49:54.410Z,96008.15
2019-04-10T04:52:24.592Z,96004.78
2019-04-10T04:54:55.272Z,96006.45
2019-04-10T04:57:25.297Z,96019.06
2019-04-10T04:59:55.407Z,96017.40
2019-04-10T05:02:26.205Z,96012.80
2019-04-10T05:04:56.318Z,96019.12
2019-04-10T05:07:26.435Z,96012.41
2019-04-10T05:09:59.057Z,96023.36
2019-04-10T05:12:28.767Z,96019.58
2019-04-10T05:14:58.873Z,96028.00
2019-04-10T05:17:29.056Z,96025.08
2019-04-10T05:19:59.432Z,96031.80
2019-04-10T05:22:29.584Z,96030.98
2019-04-10T05:25:00.676Z,96036.89
2019-04-10T05:27:30.995Z,96035.19
2019-04-10T05:30:02.269Z,96037.75
2019-04-10T05:32:32.939Z,96036.90
2019-04-10T05:35:05.818Z,96041.95
2019-04-10T05:37:35.882Z,96040.23
2019-04-10T05:40:07.578Z,96038.56
2019-04-10T05:42:38.161Z,96039.83
2019-04-10T05:45:09.213Z,96037.30
2019-04-10T05:47:39.460Z,96041.09
2019-04-10T05:50:10.775Z,96044.06
2019-04-10T05:52:40.996Z,96041.54
2019-04-10T05:55:11.835Z,96055.39
2019-04-10T05:57:42.673Z,96042.77
2019-04-10T06:00:14.261Z,96052.04
2019-04-10T06:02:44.281Z,96049.48
2019-04-10T06:05:14.344Z,96055.39
2019-04-10T06:07:45.381Z,96053.72
2019-04-10T06:10:15.547Z,96052.91
2019-04-10T06:12:46.676Z,96050.34
2019-04-10T06:15:16.973Z,96050.77
2019-04-10T06:17:47.036Z,96051.20
2019-04-10T06:20:17.515Z,96057.09
2019-04-10T06:22:47.649Z,96058.77
2019-04-10T06:25:19.595Z,96054.58
2019-04-10T06:27:52.648Z,96056.34
2019-04-10T06:30:23.908Z,96052.97
2019-04-10T06:32:55.750Z,96056.35
2019-04-10T06:35:26.198Z,96059.33
2019-04-10T06:37:56.821Z,96058.95
2019-04-10T06:40:27.956Z,96056.88
2019-04-10T06:42:59.450Z,96067.84
2019-04-10T06:45:29.798Z,96064.05
2019-04-10T06:48:00.501Z,96049.75
2019-04-10T06:50:31.599Z,96057.36
2019-04-10T06:53:01.897Z,96064.54
2019-04-10T06:55:32.317Z,96060.78
2019-04-10T06:58:02.792Z,96058.70
2019-04-10T07:00:32.869Z,96055.79
2019-04-10T07:03:03.148Z,96059.61
2019-04-10T07:05:41.361Z,96059.19
2019-04-10T07:08:13.439Z,96061.30
2019-04-10T07:10:47.961Z,96059.19
2019-04-10T07:13:10.372Z,96063.01
2019-04-10T07:15:42.887Z,96062.56
2019-04-10T07:18:15.973Z,96068.50
2019-04-10T07:20:44.368Z,96063.03
2019-04-10T07:23:19.238Z,96064.28
2019-04-10T07:25:47.254Z,96062.63
2019-04-10T07:28:18.158Z,96068.52
2019-04-10T07:30:48.251Z,96064.32
2019-04-10T07:33:19.593Z,96069.39
2019-04-10T07:35:50.134Z,96071.05
2019-04-10T07:38:21.310Z,96067.69
2019-04-10T07:40:51.915Z,96067.66
2019-04-10T07:43:25.577Z,96068.89
2019-04-10T07:45:56.677Z,96070.17
2019-04-10T07:48:25.702Z,96067.61
2019-04-10T07:50:56.349Z,96066.72
2019-04-10T07:53:26.820Z,96070.09
2019-04-10T07:56:05.303Z,96072.62
2019-04-10T07:58:29.347Z,96070.93
2019-04-10T08:00:59.487Z,96078.92
2019-04-10T08:03:29.603Z,96077.66
2019-04-10T08:06:00.413Z,96075.96
2019-04-10T08:08:30.488Z,96073.47
2019-04-10T08:11:01.601Z,96079.77
2019-04-10T08:13:32.992Z,96079.36
2019-04-10T08:16:03.206Z,96078.06
2019-04-10T08:18:33.237Z,96080.59
2019-04-10T08:21:03.302Z,96082.66
2019-04-10T08:23:33.754Z,96081.78
2019-04-10T08:26:03.993Z,96089.77
2019-04-10T08:28:35.030Z,96082.17
2019-04-10T08:31:06.485Z,96089.30
2019-04-10T08:33:36.763Z,96092.23
2019-04-10T08:36:07.448Z,96099.36
2019-04-10T08:38:38.095Z,96094.20
2019-04-10T08:41:08.710Z,96091.11
2019-04-10T08:43:39.679Z,96092.75
2019-04-10T08:46:10.754Z,96091.08
2019-04-10T08:48:44.124Z,96092.73
2019-04-10T08:51:14.926Z,96086.33
2019-04-10T08:53:46.700Z,96082.92
2019-04-10T08:56:16.896Z,96090.48
2019-04-10T08:58:48.248Z,96083.64
2019-04-10T09:01:18.564Z,96085.27
2019-04-10T09:03:48.920Z,96087.71
2019-04-10T09:06:19.509Z,96082.25
2019-04-10T09:08:49.605Z,96080.89
2019-04-10T09:11:26.379Z,96079.53
2019-04-10T09:13:52.743Z,96084.05
2019-04-10T09:16:23.046Z,96083.02
2019-04-10T09:18:53.800Z,96077.73
2019-04-10T09:21:24.308Z,96078.84
2019-04-10T09:23:57.276Z,96085.02
2019-04-10T09:26:26.542Z,96074.35
2019-04-10T09:28:57.085Z,96081.05
2019-04-10T09:31:27.229Z,96075.44
2019-04-10T09:33:57.282Z,96081.18
2019-04-10T09:36:27.328Z,96079.31
2019-04-10T09:38:57.465Z,96075.87
2019-04-10T09:41:28.053Z,96067.34
2019-04-10T09:43:58.372Z,96074.83
2019-04-10T09:46:28.875Z,96073.88
2019-04-10T09:48:59.139Z,96074.57
2019-04-10T09:51:29.702Z,96078.00
2019-04-10T09:53:59.874Z,96079.64
2019-04-10T09:56:30.007Z,96075.19
2019-04-10T09:59:00.875Z,96075.41
2019-04-10T10:01:31.085Z,96076.64
2019-04-10T10:04:01.312Z,96077.55
2019-04-10T10:06:34.890Z,96078.05
2019-04-10T10:09:04.723Z,96076.73
2019-04-10T10:11:34.928Z,96079.16
2019-04-10T10:14:06.130Z,96077.59
2019-04-10T10:16:36.331Z,96076.77
2019-04-10T10:19:06.514Z,96079.26
2019-04-10T10:21:36.669Z,96075.77
2019-04-10T10:24:06.786Z,96071.05
2019-04-10T10:26:36.962Z,96071.05
2019-04-10T10:29:07.128Z,96072.79
2019-04-10T10:31:38.017Z,96075.64
2019-04-10T10:34:08.167Z,96072.23
2019-04-10T10:36:41.942Z,96075.45
2019-04-10T10:39:18.992Z,96070.67
2019-04-10T10:41:49.298Z,96072.66
2019-04-10T10:44:19.406Z,96071.94
2019-04-10T10:46:49.592Z,96073.38
2019-04-10T10:49:20.162Z,96080.94
2019-04-10T10:51:51.077Z,96076.69
2019-04-10T10:54:21.303Z,96074.20
2019-04-10T10:56:51.435Z,96075.48
2019-04-10T10:59:21.843Z,96074.73
2019-04-10T11:01:52.011Z,96078.82
2019-04-10T11:04:23.165Z,96074.52
2019-04-10T11:06:59.567Z,96081.42
2019-04-10T11:09:26.211Z,96073.92
2019-04-10T11:11:57.394Z,96081.14
2019-04-10T11:14:27.800Z,96082.22
2019-04-10T11:16:57.955Z,96077.77
2019-04-10T11:19:29.054Z,96075.05
2019-04-10T11:21:59.249Z,96077.67
2019-04-10T11:24:29.351Z,96073.46
2019-04-10T11:27:00.062Z,96077.67
2019-04-10T11:29:31.458Z,96079.45
2019-04-10T11:32:02.259Z,96079.95
2019-04-10T11:34:34.428Z,96076.41
2019-04-10T11:37:21.563Z,96076.41
2019-04-10T11:39:40.349Z,96076.52
2019-04-10T11:42:09.907Z,96081.69
2019-04-10T11:44:41.714Z,96084.23
2019-04-10T11:47:12.447Z,96085.42
2019-04-10T11:49:44.332Z,96094.88
2019-04-10T11:52:15.942Z,96091.50
2019-04-10T11:54:48.586Z,96088.66
2019-04-10T11:57:20.413Z,96093.33
2019-04-10T11:59:50.381Z,96092.48
2019-04-10T12:02:21.870Z,96097.09
2019-04-10T12:04:55.899Z,96095.70
2019-04-10T12:12:28.053Z,96099.03
2019-04-10T12:14:58.210Z,96097.16
2019-04-10T12:17:28.350Z,96096.64
2019-04-10T12:19:58.544Z,96091.05
2019-04-10T12:22:29.589Z,96097.71
2019-04-10T12:25:00.669Z,96096.26
2019-04-10T12:27:31.429Z,96090.16
2019-04-10T12:30:02.819Z,96092.00
2019-04-10T12:32:33.171Z,96091.42
2019-04-10T12:35:04.679Z,96091.28
2019-04-10T12:37:35.115Z,96094.84
2019-04-10T12:40:05.552Z,96090.47
2019-04-10T12:42:36.542Z,96094.45
2019-04-10T12:45:08.255Z,96097.66
2019-04-10T12:47:38.420Z,96095.11
2019-04-10T12:50:08.659Z,96096.07
2019-04-10T12:52:38.845Z,96094.66
2019-04-10T12:55:10.001Z,96092.25
2019-04-10T12:57:41.381Z,96089.56
2019-04-10T13:00:14.260Z,96085.77
2019-04-10T13:02:44.830Z,96086.75
2019-04-10T13:05:15.367Z,96095.36
2019-04-10T13:07:45.644Z,96095.56
2019-04-10T13:10:15.820Z,96095.20
2019-04-10T13:12:46.966Z,96092.23
2019-04-10T13:15:19.311Z,96090.53
2019-04-10T13:17:49.756Z,96090.59
2019-04-10T13:20:19.958Z,96090.59
2019-04-10T13:22:50.704Z,96091.44
2019-04-10T13:25:21.952Z,96094.45
2019-04-10T13:27:52.785Z,96094.16
2019-04-10T13:30:23.067Z,96087.45
2019-04-10T13:32:53.124Z,96086.56
2019-04-10T13:35:24.117Z,96082.22
2019-04-10T13:37:54.854Z,96085.13
2019-04-10T13:40:25.754Z,96082.05
2019-04-10T13:42:55.876Z,96087.02
2019-04-10T13:45:27.076Z,96087.38
2019-04-10T13:47:57.325Z,96088.52
2019-04-10T13:50:27.521Z,96088.45
2019-04-10T13:52:57.664Z,96079.84
2019-04-10T13:55:28.439Z,96082.26
2019-04-10T13:57:59.959Z,96089.59
2019-04-10T14:00:41.153Z,96086.69
2019-04-10T14:03:12.226Z,96091.79
2019-04-10T14:05:46.635Z,96091.33
2019-04-10T14:08:17.233Z,96088.25
2019-04-10T14:10:47.395Z,96093.35
2019-04-10T14:13:17.884Z,96089.09
2019-04-10T14:15:48.463Z,96089.09
2019-04-10T14:18:18.852Z,96094.20
2019-04-10T14:20:48.936Z,96091.89
2019-04-10T14:23:22.351Z,96095.86
2019-04-10T14:26:14.364Z,96097.13
2019-04-10T14:28:44.996Z,96091.96
2019-04-10T14:31:23.107Z,96095.30
2019-04-10T14:33:53.342Z,96097.32
2019-04-10T14:36:24.358Z,96098.10
2019-04-10T14:38:56.166Z,96088.31
2019-04-10T14:41:27.522Z,96094.27
2019-04-10T14:43:57.857Z,96089.91
2019-04-10T14:46:28.422Z,96089.42
2019-04-10T14:48:58.677Z,96091.02
2019-04-10T14:51:28.773Z,96094.03
2019-04-10T14:53:59.558Z,96097.47
2019-04-10T14:56:30.476Z,96102.64
2019-04-10T14:59:02.004Z,96105.27
2019-04-10T15:01:32.358Z,96104.41
2019-04-10T15:04:02.688Z,96111.61
2019-04-10T15:06:33.390Z,96103.45
2019-04-10T15:09:06.131Z,96103.39
2019-04-10T15:11:36.409Z,96099.13
2019-04-10T15:14:07.630Z,96108.95
2019-04-10T15:16:39.037Z,96103.45
2019-04-10T15:19:10.034Z,96112.92
2019-04-10T15:21:40.231Z,96113.02
2019-04-10T15:24:11.057Z,96118.39
2019-04-10T15:26:41.400Z,96114.73
2019-04-10T15:29:12.208Z,96116.10
2019-04-10T15:31:42.427Z,96119.11
2019-04-10T15:34:12.503Z,96122.97
2019-04-10T15:36:44.741Z,96128.13
2019-04-10T15:39:14.809Z,96126.49
2019-04-10T15:41:45.533Z,96127.38
2019-04-10T15:44:16.364Z,96124.06
2019-04-10T15:46:46.968Z,96131.74
2019-04-10T15:49:17.418Z,96126.70
2019-04-10T15:51:47.719Z,96131.44
2019-04-10T15:54:18.080Z,96136.20
2019-04-10T15:56:48.438Z,96132.06
2019-04-10T15:59:19.793Z,96133.82
2019-04-10T16:01:51.075Z,96140.25
2019-04-10T16:04:21.996Z,96140.31
2019-04-10T16:06:52.134Z,96142.43
2019-04-10T16:09:23.239Z,96145.03
2019-04-10T16:12:00.868Z,96148.91
2019-04-10T16:14:32.064Z,96153.58
2019-04-10T16:17:23.871Z,96146.50
2019-04-10T16:20:09.502Z,96149.17
2019-04-10T16:22:46.766Z,96157.52
2019-04-10T16:25:30.098Z,96157.52
2019-04-10T16:28:02.194Z,96160.13
2019-04-10T16:30:32.959Z,96157.67
2019-04-10T16:33:03.219Z,96161.98
2019-04-10T16:35:35.445Z,96156.56
2019-04-10T16:38:06.896Z,96168.89
2019-04-10T16:40:38.284Z,96169.84
2019-04-10T16:43:09.307Z,96177.51
2019-04-10T16:45:40.524Z,96172.52
2019-04-10T16:48:10.908Z,96173.88
2019-04-10T16:50:41.011Z,96176.03
2019-04-10T16:53:11.832Z,96181.97
2019-04-10T16:55:43.069Z,96187.05
2019-04-10T16:58:13.727Z,96193.45
2019-04-10T17:00:45.208Z,96192.23
2019-04-10T17:03:15.692Z,96199.91
2019-04-10T17:05:46.039Z,96199.08
2019-04-10T17:08:16.397Z,96197.84
2019-04-10T17:10:46.731Z,96197.88
2019-04-10T17:13:18.219Z,96200.87
2019-04-10T17:15:49.937Z,96203.45
2019-04-10T17:18:24.852Z,96203.06
2019-04-10T17:20:57.095Z,96203.53
2019-04-10T17:23:27.448Z,96201.90
2019-04-10T17:25:58.247Z,96215.48
2019-04-10T17:28:28.675Z,96207.93
2019-04-10T17:31:00.171Z,96203.31
2019-04-10T17:33:32.153Z,96210.54
2019-04-10T17:36:02.721Z,96212.28
2019-04-10T17:38:34.713Z,96216.55
2019-04-10T17:41:04.870Z,96218.29
2019-04-10T17:43:35.188Z,96225.95
2019-04-10T17:46:05.305Z,96223.43
2019-04-10T17:48:37.299Z,96226.86
2019-04-10T17:51:07.992Z,96244.67
2019-04-10T17:53:38.114Z,96244.67
2019-04-10T17:56:08.488Z,96240.03
2019-04-10T17:58:38.687Z,96246.41
2019-04-10T18:01:13.080Z,96247.27
2019-04-10T18:03:51.659Z,96252.34
2019-04-10T18:06:15.328Z,96257.47
2019-04-10T18:08:45.522Z,96264.25
2019-04-10T18:11:16.224Z,96268.48
2019-04-10T18:13:46.857Z,96267.64
2019-04-10T18:16:17.890Z,96261.77
2019-04-10T18:18:48.631Z,96261.77
2019-04-10T18:21:18.815Z,96280.36
2019-04-10T18:23:49.535Z,96280.37
2019-04-10T18:26:21.079Z,96286.32
2019-04-10T18:28:51.994Z,96286.74
2019-04-10T18:31:25.127Z,96299.05
2019-04-10T18:33:55.209Z,96300.75
2019-04-10T18:36:25.558Z,96299.91
2019-04-10T18:38:55.893Z,96306.69
2019-04-10T18:41:26.213Z,96310.92
2019-04-10T18:43:56.480Z,96310.49
2019-04-10T18:46:27.111Z,96320.65
2019-04-10T18:48:58.896Z,96311.78
2019-04-10T18:51:29.915Z,96319.37
2019-04-10T18:54:01.509Z,96324.47
2019-04-10T18:56:33.384Z,96329.54
2019-04-10T18:59:18.477Z,96336.30
2019-04-10T19:01:59.458Z,96332.09
2019-04-10T19:04:37.165Z,96344.77
2019-04-10T19:07:07.605Z,96335.45
2019-04-10T19:09:38.936Z,96341.39
2019-04-10T19:12:10.703Z,96349.01
2019-04-10T19:14:42.465Z,96343.94
2019-04-10T19:17:13.317Z,96347.30
2019-04-10T19:19:45.381Z,96346.03
2019-04-10T19:22:20.195Z,96341.81
2019-04-10T19:24:54.378Z,96351.52
2019-04-10T19:27:26.615Z,96359.58
2019-04-10T19:29:57.213Z,96359.13
2019-04-10T19:32:33.281Z,96361.67
2019-04-10T19:35:04.646Z,96354.48
2019-04-10T19:37:36.767Z,96364.22
2019-04-10T19:40:09.499Z,96362.54
2019-04-10T19:42:40.029Z,96365.05
2019-04-10T19:45:11.890Z,96364.22
2019-04-10T19:47:44.117Z,96362.52
2019-04-10T19:50:17.537Z,96365.06
2019-04-10T19:52:47.107Z,96366.74
2019-04-10T19:55:19.811Z,96367.61
2019-04-10T19:57:53.364Z,96368.02
2019-04-10T20:00:32.618Z,96363.36
2019-04-10T20:03:06.104Z,96367.17
2019-04-10T20:05:37.274Z,96366.32
2019-04-10T20:08:07.858Z,96365.06
2019-04-10T20:10:38.819Z,96367.59
2019-04-10T20:13:09.348Z,96369.25
2019-04-10T20:15:39.757Z,96375.19
2019-04-10T20:18:10.687Z,96372.65
2019-04-10T20:20:41.614Z,96369.67
2019-04-10T20:23:12.725Z,96373.48
2019-04-10T20:25:44.124Z,96371.80
2019-04-10T20:28:14.348Z,96373.08
2019-04-10T20:30:44.759Z,96374.31
2019-04-10T20:33:15.115Z,96375.16
2019-04-10T20:35:46.610Z,96370.51
2019-04-10T20:38:17.599Z,96374.31
2019-04-10T20:40:47.952Z,96377.70
2019-04-10T20:43:18.570Z,96375.17
2019-04-10T20:45:49.668Z,96376.85
2019-04-10T20:48:20.367Z,96383.19
2019-04-10T20:50:50.921Z,96389.53
2019-04-10T20:53:22.116Z,96391.20
2019-04-10T20:55:52.551Z,96394.56
2019-04-10T20:58:22.678Z,96395.02
2019-04-10T21:00:52.893Z,96397.10
2019-04-10T21:03:23.220Z,96396.25
2019-04-10T21:05:53.409Z,96396.25
2019-04-10T21:08:23.491Z,96394.57
2019-04-10T21:10:54.721Z,96402.17
2019-04-10T21:13:25.399Z,96402.59
2019-04-10T21:15:55.506Z,96399.64
2019-04-10T21:18:25.536Z,96401.73
2019-04-10T21:20:55.635Z,96404.71
2019-04-10T21:23:29.270Z,96408.92
2019-04-10T21:25:59.599Z,96408.92
2019-04-10T21:28:30.561Z,96416.53
2019-04-10T21:31:38.572Z,96419.06
2019-04-10T21:34:37.061Z,96420.33
2019-04-10T21:37:08.131Z,96424.98
2019-04-10T21:39:38.464Z,96424.95
2019-04-10T21:42:17.968Z,96422.42
2019-04-10T21:44:40.597Z,96424.09
2019-04-10T21:47:11.099Z,96423.23
2019-04-10T21:49:44.198Z,96427.86
2019-04-10T21:52:14.468Z,96421.53
2019-04-10T21:54:51.162Z,96424.92
2019-04-10T21:57:16.307Z,96426.59
2019-04-10T21:59:47.502Z,96430.81
2019-04-10T22:02:17.952Z,96428.72
2019-04-10T22:04:48.059Z,96433.34
2019-04-10T22:07:29.589Z,96431.63
2019-04-10T22:10:15.386Z,96430.77
2019-04-10T22:12:48.884Z,96425.70
2019-04-10T22:15:27.323Z,96432.00
2019-04-10T22:17:58.642Z,96431.14
2019-04-10T22:20:29.743Z,96431.55
2019-04-10T22:23:00.167Z,96437.46
2019-04-10T22:25:30.271Z,96433.21
2019-04-10T22:28:00.612Z,96442.48
2019-04-10T22:30:30.897Z,96444.56
2019-04-10T22:33:01.024Z,96445.83
2019-04-10T22:35:31.442Z,96444.11
2019-04-10T22:38:02.668Z,96443.28
2019-04-10T22:40:33.343Z,96444.09
2019-04-10T22:43:03.435Z,96444.95
2019-04-10T22:45:34.617Z,96432.25
2019-04-10T22:48:04.752Z,96449.98
2019-04-10T22:50:34.879Z,96448.70
2019-04-10T22:53:05.032Z,96442.78
2019-04-10T22:55:35.715Z,96444.45
2019-04-10T22:58:06.038Z,96446.12
2019-04-10T23:00:36.199Z,96439.79
2019-04-10T23:03:06.285Z,96436.40
2019-04-10T23:05:36.535Z,96438.06
2019-04-10T23:08:07.402Z,96439.77
2019-04-10T23:10:37.557Z,96439.73
2019-04-10T23:13:08.983Z,96441.80
2019-04-10T23:15:39.849Z,96444.77
2019-04-10T23:18:10.052Z,96440.52
2019-04-10T23:20:40.080Z,96438.79
2019-04-10T23:23:10.636Z,96440.05
2019-04-10T23:25:40.779Z,96440.44
2019-04-10T23:28:11.477Z,96437.86
2019-04-10T23:30:41.692Z,96434.86
2019-04-10T23:33:12.178Z,96442.43
2019-04-10T23:35:43.318Z,96441.97
2019-04-10T23:38:13.562Z,96443.23
2019-04-10T23:40:43.639Z,96437.70
2019-04-10T23:43:16.621Z,96449.48
2019-04-10T23:45:46.062Z,96449.46
2019-04-10T23:48:17.472Z,96448.99
2019-04-10T23:50:48.298Z,96443.52
2019-04-10T23:53:18.404Z,96450.23
2019-04-10T23:55:48.573Z,96449.75
2019-04-10T23:58:18.656Z,96446.78
